createdAt,value
2022-10-24T00:01:00.554Z,13.9
2022-10-24T00:02:03.373Z,13.9
2022-10-24T00:03:06.805Z,14
2022-10-24T00:04:09.820Z,13.9
2022-10-24T00:05:12.907Z,13.9
2022-10-24T00:06:16.608Z,13.9
2022-10-24T00:07:19.770Z,13.8
2022-10-24T00:08:22.221Z,13.9
2022-10-24T00:09:25.272Z,13.8
2022-10-24T00:10:28.045Z,13.8
2022-10-24T00:11:31.200Z,13.8
2022-10-24T00:12:33.987Z,13.8
2022-10-24T00:13:37.017Z,13.8
2022-10-24T00:14:40.655Z,13.8
2022-10-24T00:15:44.540Z,13.8
2022-10-24T00:16:47.250Z,13.8
2022-10-24T00:17:50.520Z,13.7
2022-10-24T00:18:53.313Z,13.8
2022-10-24T00:19:56.097Z,13.8
2022-10-24T00:20:58.340Z,13.8
2022-10-24T00:22:00.870Z,13.8
2022-10-24T00:23:03.385Z,13.7
2022-10-24T00:24:06.460Z,13.8
2022-10-24T00:25:09.084Z,13.8
2022-10-24T00:26:11.042Z,13.8
2022-10-24T00:27:13.641Z,13.8
2022-10-24T00:28:16.835Z,13.8
2022-10-24T00:29:20.648Z,13.8
2022-10-24T00:30:23.464Z,13.8
2022-10-24T00:31:26.609Z,13.7
2022-10-24T00:32:29.681Z,13.8
2022-10-24T00:33:32.775Z,13.8
2022-10-24T00:34:36.586Z,13.8
2022-10-24T00:35:39.661Z,13.8
2022-10-24T00:36:42.737Z,13.8
2022-10-24T00:37:47.575Z,13.7
2022-10-24T00:38:50.435Z,13.7
2022-10-24T00:39:52.761Z,13.8
2022-10-24T00:40:56.111Z,13.8
2022-10-24T00:41:58.830Z,13.8
2022-10-24T00:43:02.486Z,13.8
2022-10-24T00:44:05.783Z,13.8
2022-10-24T00:45:08.265Z,13.8
2022-10-24T00:46:11.641Z,13.8
2022-10-24T00:47:15.757Z,13.8
2022-10-24T00:48:18.550Z,13.8
2022-10-24T00:49:21.219Z,13.8
2022-10-24T00:50:23.889Z,13.8
2022-10-24T00:51:26.966Z,13.8
2022-10-24T00:52:30.188Z,13.8
2022-10-24T00:53:32.734Z,13.8
2022-10-24T00:54:35.448Z,13.7
2022-10-24T00:55:38.160Z,13.7
2022-10-24T00:56:40.867Z,13.7
2022-10-24T00:57:45.815Z,13.8
2022-10-24T00:58:49.449Z,13.8
2022-10-24T00:59:52.541Z,13.8
2022-10-24T01:00:56.100Z,13.7
2022-10-24T01:01:59.583Z,13.7
2022-10-24T01:03:02.793Z,13.8
2022-10-24T01:04:06.164Z,13.8
2022-10-24T01:05:09.248Z,13.7
2022-10-24T01:06:11.959Z,13.7
2022-10-24T01:07:15.685Z,13.7
2022-10-24T01:08:19.052Z,13.7
2022-10-24T01:09:22.754Z,13.7
2022-10-24T01:10:25.984Z,13.7
2022-10-24T01:11:28.984Z,13.7
2022-10-24T01:12:31.973Z,13.7
2022-10-24T01:13:34.497Z,13.7
2022-10-24T01:14:37.288Z,13.7
2022-10-24T01:15:40.001Z,13.7
2022-10-24T01:16:42.912Z,13.7
2022-10-24T01:17:45.990Z,13.7
2022-10-24T01:18:49.634Z,13.7
2022-10-24T01:19:52.520Z,13.7
2022-10-24T01:20:55.885Z,13.7
2022-10-24T01:21:58.730Z,13.7
2022-10-24T01:23:01.801Z,13.6
2022-10-24T01:24:04.675Z,13.6
2022-10-24T01:25:07.545Z,13.6
2022-10-24T01:26:10.327Z,13.6
2022-10-24T01:28:17.615Z,13.6
2022-10-24T01:29:21.082Z,13.6
2022-10-24T01:30:24.262Z,13.6
2022-10-24T01:31:27.429Z,13.6
2022-10-24T01:32:29.891Z,13.6
2022-10-24T01:33:33.235Z,13.6
2022-10-24T01:34:36.909Z,13.6
2022-10-24T01:35:39.488Z,13.6
2022-10-24T01:36:42.322Z,13.6
2022-10-24T01:37:47.267Z,13.6
2022-10-24T01:38:50.804Z,13.6
2022-10-24T01:39:53.866Z,13.6
2022-10-24T01:40:57.042Z,13.5
2022-10-24T01:42:00.643Z,13.5
2022-10-24T01:43:03.725Z,13.5
2022-10-24T01:44:06.852Z,13.5
2022-10-24T01:45:10.193Z,13.5
2022-10-24T01:46:12.955Z,13.5
2022-10-24T01:47:16.320Z,13.5
2022-10-24T01:48:20.457Z,13.5
2022-10-24T01:49:24.181Z,13.5
2022-10-24T01:50:28.286Z,13.5
2022-10-24T01:51:31.428Z,13.5
2022-10-24T01:52:34.590Z,13.5
2022-10-24T01:53:37.014Z,13.5
2022-10-24T01:54:40.734Z,13.5
2022-10-24T01:55:43.798Z,13.5
2022-10-24T01:56:46.597Z,13.4
2022-10-24T01:57:49.660Z,13.4
2022-10-24T01:58:53.119Z,13.4
2022-10-24T01:59:55.504Z,13.4
2022-10-24T02:00:58.403Z,13.4
2022-10-24T02:02:00.919Z,13.4
2022-10-24T02:03:03.990Z,13.4
2022-10-24T02:04:08.028Z,13.4
2022-10-24T02:05:11.494Z,13.4
2022-10-24T02:06:15.189Z,13.5
2022-10-24T02:07:17.974Z,13.4
2022-10-24T02:08:21.456Z,13.4
2022-10-24T02:09:24.048Z,13.4
2022-10-24T02:10:26.845Z,13.4
2022-10-24T02:11:29.276Z,13.4
2022-10-24T02:12:31.983Z,13.5
2022-10-24T02:13:34.749Z,13.4
2022-10-24T02:14:37.890Z,13.4
2022-10-24T02:15:40.680Z,13.4
2022-10-24T02:16:44.016Z,13.4
2022-10-24T02:17:48.552Z,13.4
2022-10-24T02:18:51.922Z,13.4
2022-10-24T02:19:55.019Z,13.4
2022-10-24T02:20:58.451Z,13.4
2022-10-24T02:22:02.229Z,13.4
2022-10-24T02:23:05.573Z,13.4
2022-10-24T02:24:08.465Z,13.4
2022-10-24T02:25:11.850Z,13.4
2022-10-24T02:26:15.287Z,13.4
2022-10-24T02:27:17.998Z,13.4
2022-10-24T02:28:21.022Z,13.5
2022-10-24T02:29:24.244Z,13.4
2022-10-24T02:30:27.103Z,13.4
2022-10-24T02:31:29.689Z,13.4
2022-10-24T02:32:32.576Z,13.4
2022-10-24T02:33:35.565Z,13.4
2022-10-24T02:34:37.249Z,13.4
2022-10-24T02:35:40.661Z,13.4
2022-10-24T02:36:44.132Z,13.4
2022-10-24T02:37:48.799Z,13.4
2022-10-24T02:38:51.598Z,13.4
2022-10-24T02:39:54.430Z,13.4
2022-10-24T02:40:57.140Z,13.4
2022-10-24T02:42:00.631Z,13.4
2022-10-24T02:43:03.732Z,13.4
2022-10-24T02:44:07.172Z,13.4
2022-10-24T02:45:10.325Z,13.4
2022-10-24T02:46:13.549Z,13.4
2022-10-24T02:47:16.804Z,13.4
2022-10-24T02:48:19.591Z,13.4
2022-10-24T02:49:22.301Z,13.4
2022-10-24T02:50:25.664Z,13.4
2022-10-24T02:51:28.789Z,13.4
2022-10-24T02:52:32.151Z,13.4
2022-10-24T02:53:35.295Z,13.4
2022-10-24T02:54:37.238Z,13.4
2022-10-24T02:55:40.509Z,13.4
2022-10-24T02:56:43.040Z,13.4
2022-10-24T02:57:45.479Z,13.4
2022-10-24T02:58:48.474Z,13.4
2022-10-24T02:59:51.662Z,13.4
2022-10-24T03:00:54.480Z,13.4
2022-10-24T03:01:57.143Z,13.4
2022-10-24T03:03:00.242Z,13.4
2022-10-24T03:04:03.033Z,13.4
2022-10-24T03:05:05.352Z,13.4
2022-10-24T03:06:08.625Z,13.4
2022-10-24T03:07:11.472Z,13.4
2022-10-24T03:08:14.943Z,13.4
2022-10-24T03:09:18.775Z,13.3
2022-10-24T03:10:21.561Z,13.4
2022-10-24T03:11:24.674Z,13.3
2022-10-24T03:12:27.737Z,13.4
2022-10-24T03:13:30.527Z,13.3
2022-10-24T03:14:32.841Z,13.3
2022-10-24T03:15:36.224Z,13.4
2022-10-24T03:16:39.198Z,13.3
2022-10-24T03:17:42.890Z,13.3
2022-10-24T03:18:46.067Z,13.3
2022-10-24T03:19:48.854Z,13.3
2022-10-24T03:20:52.024Z,13.3
2022-10-24T03:21:55.014Z,13.3
2022-10-24T03:22:58.540Z,13.3
2022-10-24T03:24:02.153Z,13.3
2022-10-24T03:25:06.054Z,13.3
2022-10-24T03:26:09.670Z,13.2
2022-10-24T03:27:13.461Z,13.2
2022-10-24T03:28:16.245Z,13.2
2022-10-24T03:29:18.488Z,13.2
2022-10-24T03:30:21.203Z,13.2
2022-10-24T03:31:23.638Z,13.2
2022-10-24T03:32:27.870Z,13.2
2022-10-24T03:33:30.307Z,13.2
2022-10-24T03:34:33.526Z,13.2
2022-10-24T03:35:36.247Z,13.2
2022-10-24T03:36:39.197Z,13.1
2022-10-24T03:37:42.545Z,13.1
2022-10-24T03:38:45.389Z,13.1
2022-10-24T03:39:49.029Z,13.1
2022-10-24T03:40:52.649Z,13.1
2022-10-24T03:41:55.475Z,13.1
2022-10-24T03:42:58.572Z,13.1
2022-10-24T03:44:01.546Z,13.1
2022-10-24T03:45:04.331Z,13.1
2022-10-24T03:46:07.045Z,13.1
2022-10-24T03:47:09.834Z,13.1
2022-10-24T03:48:13.176Z,13.1
2022-10-24T03:49:15.623Z,13.1
2022-10-24T03:50:18.978Z,13.1
2022-10-24T03:51:21.782Z,13.1
2022-10-24T03:52:25.494Z,13.1
2022-10-24T03:53:29.205Z,13.1
2022-10-24T03:54:32.598Z,13
2022-10-24T03:55:35.687Z,13
2022-10-24T03:56:38.960Z,13
2022-10-24T03:57:42.490Z,13
2022-10-24T03:58:45.445Z,13
2022-10-24T03:59:48.877Z,13
2022-10-24T04:00:52.391Z,13
2022-10-24T04:01:55.116Z,13
2022-10-24T04:02:57.850Z,13
2022-10-24T04:04:01.009Z,13
2022-10-24T04:05:04.167Z,13
2022-10-24T04:06:07.784Z,13
2022-10-24T04:07:10.921Z,13
2022-10-24T04:08:13.516Z,13
2022-10-24T04:09:16.595Z,12.9
2022-10-24T04:10:19.618Z,13
2022-10-24T04:11:22.766Z,13
2022-10-24T04:12:26.240Z,13
2022-10-24T04:13:29.338Z,12.9
2022-10-24T04:14:32.536Z,12.9
2022-10-24T04:15:35.527Z,13
2022-10-24T04:16:38.895Z,12.9
2022-10-24T04:17:42.449Z,13
2022-10-24T04:18:46.327Z,13
2022-10-24T04:19:48.719Z,12.9
2022-10-24T04:20:51.538Z,13
2022-10-24T04:21:55.331Z,12.9
2022-10-24T04:23:05.570Z,12.9
2022-10-24T04:24:08.367Z,12.9
2022-10-24T04:25:11.699Z,12.9
2022-10-24T04:26:14.875Z,12.9
2022-10-24T04:27:18.388Z,12.9
2022-10-24T04:28:22.092Z,12.9
2022-10-24T04:29:25.596Z,12.9
2022-10-24T04:30:28.342Z,12.9
2022-10-24T04:31:31.433Z,12.9
2022-10-24T04:32:34.772Z,12.9
2022-10-24T04:33:37.085Z,12.9
2022-10-24T04:34:39.600Z,12.9
2022-10-24T04:35:42.393Z,12.9
2022-10-24T04:36:44.828Z,12.9
2022-10-24T04:37:47.619Z,12.9
2022-10-24T04:38:50.954Z,12.9
2022-10-24T04:39:54.459Z,12.9
2022-10-24T04:40:56.977Z,12.9
2022-10-24T04:41:59.896Z,12.9
2022-10-24T04:43:03.560Z,12.9
2022-10-24T04:44:07.676Z,12.9
2022-10-24T04:45:10.182Z,12.9
2022-10-24T04:46:13.539Z,12.9
2022-10-24T04:47:16.787Z,12.9
2022-10-24T04:48:19.303Z,12.9
2022-10-24T04:49:22.269Z,12.9
2022-10-24T04:50:25.541Z,12.9
2022-10-24T04:51:27.854Z,12.9
2022-10-24T04:52:30.564Z,12.9
2022-10-24T04:53:33.631Z,12.9
2022-10-24T04:54:36.356Z,12.9
2022-10-24T04:55:39.398Z,12.9
2022-10-24T04:56:41.837Z,12.9
2022-10-24T04:57:46.968Z,12.9
2022-10-24T04:58:51.305Z,12.9
2022-10-24T04:59:54.706Z,12.9
2022-10-24T05:00:57.550Z,12.9
2022-10-24T05:02:01.278Z,12.9
2022-10-24T05:03:03.929Z,12.9
2022-10-24T05:04:07.374Z,12.9
2022-10-24T05:05:10.464Z,12.9
2022-10-24T05:06:13.581Z,12.9
2022-10-24T05:07:16.285Z,12.9
2022-10-24T05:08:18.987Z,12.9
2022-10-24T05:09:21.302Z,12.9
2022-10-24T05:10:24.080Z,12.9
2022-10-24T05:11:26.792Z,12.9
2022-10-24T05:12:30.133Z,12.9
2022-10-24T05:13:38.146Z,12.9
2022-10-24T05:14:41.259Z,12.9
2022-10-24T05:15:45.009Z,12.9
2022-10-24T05:16:47.938Z,12.9
2022-10-24T05:17:50.982Z,12.9
2022-10-24T05:18:53.500Z,12.9
2022-10-24T05:19:56.084Z,12.9
2022-10-24T05:20:59.426Z,12.9
2022-10-24T05:22:09.984Z,12.9
2022-10-24T05:23:13.660Z,12.9
2022-10-24T05:24:16.451Z,12.9
2022-10-24T05:25:18.051Z,12.9
2022-10-24T05:26:20.858Z,12.9
2022-10-24T05:27:24.212Z,12.9
2022-10-24T05:28:27.487Z,12.9
2022-10-24T05:29:31.324Z,12.9
2022-10-24T05:30:34.948Z,12.8
2022-10-24T05:31:38.145Z,12.9
2022-10-24T05:32:41.290Z,12.8
2022-10-24T05:33:44.517Z,12.8
2022-10-24T05:34:48.255Z,12.8
2022-10-24T05:35:50.778Z,12.8
2022-10-24T05:36:53.374Z,12.8
2022-10-24T05:37:55.885Z,12.8
2022-10-24T05:38:58.130Z,12.8
2022-10-24T05:40:01.500Z,12.8
2022-10-24T05:41:04.842Z,12.8
2022-10-24T05:42:08.007Z,12.8
2022-10-24T05:43:10.870Z,12.8
2022-10-24T05:44:13.375Z,12.8
2022-10-24T05:45:17.203Z,12.8
2022-10-24T05:46:20.678Z,12.7
2022-10-24T05:47:30.138Z,12.7
2022-10-24T05:48:33.311Z,12.7
2022-10-24T05:49:36.136Z,12.7
2022-10-24T05:50:39.136Z,12.7
2022-10-24T05:51:42.856Z,12.7
2022-10-24T05:52:49.141Z,12.8
2022-10-24T05:53:51.659Z,12.8
2022-10-24T05:55:09.889Z,12.8
2022-10-24T05:56:17.834Z,12.8
2022-10-24T05:57:20.267Z,12.8
2022-10-24T05:58:23.136Z,12.8
2022-10-24T05:59:26.025Z,12.8
2022-10-24T06:00:28.831Z,12.8
2022-10-24T06:01:32.487Z,12.8
2022-10-24T06:02:36.752Z,12.8
2022-10-24T06:03:40.689Z,12.8
2022-10-24T06:04:44.337Z,12.8
2022-10-24T06:05:47.058Z,12.8
2022-10-24T06:06:49.959Z,12.8
2022-10-24T06:07:52.834Z,12.8
2022-10-24T06:08:55.093Z,12.8
2022-10-24T06:09:58.163Z,12.8
2022-10-24T06:11:00.881Z,12.8
2022-10-24T06:12:03.983Z,12.9
2022-10-24T06:13:07.058Z,12.9
2022-10-24T06:14:10.204Z,12.8
2022-10-24T06:15:13.196Z,12.9
2022-10-24T06:16:15.947Z,12.9
2022-10-24T06:17:19.660Z,12.8
2022-10-24T06:18:23.420Z,12.8
2022-10-24T06:19:25.847Z,12.9
2022-10-24T06:20:29.835Z,12.9
2022-10-24T06:21:32.298Z,12.8
2022-10-24T06:22:35.668Z,12.9
2022-10-24T06:23:38.379Z,12.9
2022-10-24T06:24:41.351Z,12.9
2022-10-24T06:25:44.547Z,12.9
2022-10-24T06:26:47.894Z,12.9
2022-10-24T06:27:51.034Z,12.9
2022-10-24T06:28:54.107Z,12.9
2022-10-24T06:29:57.361Z,12.9
2022-10-24T06:31:00.807Z,12.9
2022-10-24T06:32:03.917Z,12.9
2022-10-24T06:33:07.640Z,12.9
2022-10-24T06:34:10.866Z,12.8
2022-10-24T06:35:13.725Z,12.9
2022-10-24T06:36:16.835Z,12.9
2022-10-24T06:37:19.623Z,12.9
2022-10-24T06:38:22.681Z,12.9
2022-10-24T06:39:25.825Z,12.8
2022-10-24T06:40:29.416Z,12.9
2022-10-24T06:41:32.682Z,12.9
2022-10-24T06:42:35.583Z,12.9
2022-10-24T06:43:38.655Z,12.9
2022-10-24T06:44:42.078Z,12.9
2022-10-24T06:45:45.154Z,12.9
2022-10-24T06:46:48.932Z,12.9
2022-10-24T06:47:57.569Z,12.9
2022-10-24T06:49:01.337Z,12.9
2022-10-24T06:50:04.788Z,12.9
2022-10-24T06:51:07.777Z,12.9
2022-10-24T06:52:10.750Z,12.9
2022-10-24T06:53:14.406Z,12.9
2022-10-24T06:54:17.060Z,12.9
2022-10-24T06:55:20.200Z,12.9
2022-10-24T06:56:23.259Z,12.9
2022-10-24T06:57:25.764Z,13
2022-10-24T06:58:29.445Z,13
2022-10-24T06:59:32.373Z,13
2022-10-24T07:00:34.975Z,13
2022-10-24T07:01:38.393Z,13
2022-10-24T07:02:41.064Z,13
2022-10-24T07:03:44.589Z,13
2022-10-24T07:04:48.116Z,13.1
2022-10-24T07:05:51.880Z,13.1
2022-10-24T07:06:54.973Z,13.1
2022-10-24T07:07:57.425Z,13.1
2022-10-24T07:09:00.880Z,13.1
2022-10-24T07:10:04.029Z,13.2
2022-10-24T07:11:07.020Z,13.2
2022-10-24T07:12:10.545Z,13.2
2022-10-24T07:13:13.707Z,13.2
2022-10-24T07:14:16.785Z,13.2
2022-10-24T07:15:20.153Z,13.3
2022-10-24T07:16:23.150Z,13.3
2022-10-24T07:17:26.595Z,13.4
2022-10-24T07:18:29.310Z,13.4
2022-10-24T07:19:38.602Z,13.4
2022-10-24T07:20:42.640Z,13.4
2022-10-24T07:21:46.065Z,13.5
2022-10-24T07:22:50.114Z,13.5
2022-10-24T07:23:52.645Z,13.5
2022-10-24T07:24:55.724Z,13.5
2022-10-24T07:25:58.558Z,13.6
2022-10-24T07:27:01.715Z,13.6
2022-10-24T07:28:05.138Z,13.6
2022-10-24T07:29:08.132Z,13.7
2022-10-24T07:30:12.205Z,13.7
2022-10-24T07:31:15.356Z,13.8
2022-10-24T07:32:18.621Z,13.8
2022-10-24T07:33:21.675Z,13.8
2022-10-24T07:34:24.527Z,13.8
2022-10-24T07:35:27.649Z,13.9
2022-10-24T07:36:31.381Z,13.9
2022-10-24T07:37:35.213Z,13.9
2022-10-24T07:38:38.416Z,14
2022-10-24T07:39:42.440Z,14
2022-10-24T07:40:45.312Z,14
2022-10-24T07:41:49.043Z,14
2022-10-24T07:42:52.304Z,14.1
2022-10-24T07:43:55.754Z,14.1
2022-10-24T07:44:59.115Z,14.1
2022-10-24T07:47:05.231Z,14.1
2022-10-24T07:48:07.838Z,14.2
2022-10-24T07:49:11.290Z,14.2
2022-10-24T07:50:14.258Z,14.2
2022-10-24T07:51:17.112Z,14.2
2022-10-24T07:52:20.300Z,14.3
2022-10-24T07:53:24.043Z,14.3
2022-10-24T07:54:28.301Z,14.3
2022-10-24T07:55:32.864Z,14.4
2022-10-24T07:56:35.978Z,14.4
2022-10-24T07:57:39.263Z,14.5
2022-10-24T07:58:41.870Z,14.6
2022-10-24T07:59:44.930Z,14.6
2022-10-24T08:00:48.141Z,14.7
2022-10-24T08:01:50.888Z,14.7
2022-10-24T08:02:53.769Z,14.8
2022-10-24T08:03:56.488Z,14.8
2022-10-24T08:04:59.638Z,14.8
2022-10-24T08:06:03.357Z,14.9
2022-10-24T08:07:06.480Z,15
2022-10-24T08:08:41.630Z,15.1
2022-10-24T08:09:45.713Z,15.2
2022-10-24T08:10:49.690Z,15.2
2022-10-24T08:11:53.001Z,15.2
2022-10-24T08:12:55.814Z,15.3
2022-10-24T08:13:59.230Z,15.3
2022-10-24T08:15:03.848Z,15.4
2022-10-24T08:16:07.294Z,15.5
2022-10-24T08:17:10.151Z,15.5
2022-10-24T08:18:12.860Z,15.6
2022-10-24T08:19:16.391Z,15.6
2022-10-24T08:20:19.187Z,15.6
2022-10-24T08:21:22.251Z,15.6
2022-10-24T08:22:25.296Z,15.7
2022-10-24T08:23:28.724Z,15.7
2022-10-24T08:24:31.821Z,15.8
2022-10-24T08:25:35.947Z,15.9
2022-10-24T08:26:39.769Z,15.9
2022-10-24T08:28:45.952Z,15.9
2022-10-24T08:29:48.475Z,15.9
2022-10-24T08:30:51.546Z,15.9
2022-10-24T08:31:54.531Z,15.9
2022-10-24T08:32:57.320Z,15.9
2022-10-24T08:34:00.741Z,15.9
2022-10-24T08:35:04.200Z,15.9
2022-10-24T08:36:06.635Z,15.9
2022-10-24T08:37:10.088Z,15.9
2022-10-24T08:38:13.319Z,15.9
2022-10-24T08:39:16.662Z,15.9
2022-10-24T08:40:20.069Z,15.9
2022-10-24T08:41:23.839Z,15.9
2022-10-24T08:42:27.051Z,15.9
2022-10-24T08:43:29.510Z,15.9
2022-10-24T08:44:32.094Z,15.9
2022-10-24T08:45:34.914Z,15.9
2022-10-24T08:46:37.781Z,15.9
2022-10-24T08:47:41.952Z,16
2022-10-24T08:48:45.287Z,16
2022-10-24T08:49:52.008Z,16.1
2022-10-24T08:50:55.679Z,16
2022-10-24T08:51:58.556Z,16.1
2022-10-24T08:53:02.315Z,16.2
2022-10-24T08:54:04.868Z,16.3
2022-10-24T08:55:47.922Z,16.4
2022-10-24T08:56:53.773Z,16.5
2022-10-24T08:57:57.525Z,16.5
2022-10-24T08:59:00.620Z,16.6
2022-10-24T09:00:03.786Z,16.6
2022-10-24T09:01:07.195Z,16.8
2022-10-24T09:02:15.914Z,16.9
2022-10-24T09:03:58.156Z,17
2022-10-24T09:05:01.457Z,17
2022-10-24T09:06:04.519Z,17.2
2022-10-24T09:07:07.784Z,17.1
2022-10-24T09:08:10.876Z,17.1
2022-10-24T09:09:14.182Z,17.2
2022-10-24T09:10:17.611Z,17.3
2022-10-24T09:11:21.049Z,17.3
2022-10-24T09:12:24.850Z,17.4
2022-10-24T09:13:27.823Z,17.4
2022-10-24T09:14:31.200Z,17.3
2022-10-24T09:15:34.724Z,17.3
2022-10-24T09:16:38.239Z,17.3
2022-10-24T09:17:41.570Z,17.4
2022-10-24T09:18:44.885Z,17.5
2022-10-24T09:19:48.586Z,17.5
2022-10-24T09:20:52.665Z,17.7
2022-10-24T09:21:56.019Z,17.7
2022-10-24T09:22:59.021Z,17.8
2022-10-24T09:24:02.121Z,17.9
2022-10-24T09:25:05.913Z,18
2022-10-24T09:26:09.365Z,18
2022-10-24T09:27:12.566Z,17.9
2022-10-24T09:28:16.323Z,17.9
2022-10-24T09:29:19.422Z,18.1
2022-10-24T09:30:22.210Z,18.2
2022-10-24T09:31:25.025Z,18.3
2022-10-24T09:32:28.303Z,18.3
2022-10-24T09:33:31.392Z,18.2
2022-10-24T09:34:34.534Z,18.3
2022-10-24T09:35:37.970Z,18.2
2022-10-24T09:36:41.038Z,18.2
2022-10-24T09:37:49.774Z,18.2
2022-10-24T09:38:52.901Z,18.1
2022-10-24T09:39:55.728Z,18.1
2022-10-24T09:40:59.732Z,18
2022-10-24T09:42:03.560Z,18
2022-10-24T09:43:06.547Z,18.1
2022-10-24T09:44:09.990Z,18.1
2022-10-24T09:45:13.712Z,18.2
2022-10-24T09:46:16.782Z,18.2
2022-10-24T09:48:31.143Z,18.1
2022-10-24T09:49:34.774Z,18.1
2022-10-24T09:50:38.434Z,18.1
2022-10-24T09:51:41.869Z,18.1
2022-10-24T09:52:44.820Z,18.1
2022-10-24T09:53:48.175Z,18
2022-10-24T09:54:51.760Z,18.1
2022-10-24T09:55:55.186Z,18.1
2022-10-24T09:56:58.222Z,18.2
2022-10-24T09:58:01.677Z,18.2
2022-10-24T09:59:05.404Z,18.2
2022-10-24T10:00:09.204Z,18.3
2022-10-24T10:01:13.416Z,18.4
2022-10-24T10:02:17.608Z,18.4
2022-10-24T10:03:25.585Z,18.5
2022-10-24T10:04:28.572Z,18.5
2022-10-24T10:05:32.023Z,18.4
2022-10-24T10:06:35.190Z,18.5
2022-10-24T10:07:37.705Z,18.5
2022-10-24T10:08:41.048Z,18.7
2022-10-24T10:09:45.041Z,18.8
2022-10-24T10:10:48.105Z,18.7
2022-10-24T10:12:04.967Z,18.7
2022-10-24T10:13:08.346Z,18.8
2022-10-24T10:14:11.219Z,18.9
2022-10-24T10:15:14.748Z,19
2022-10-24T10:16:17.834Z,19
2022-10-24T10:17:21.281Z,19.1
2022-10-24T10:18:24.192Z,19.3
2022-10-24T10:19:27.545Z,19.3
2022-10-24T10:20:29.939Z,19.3
2022-10-24T10:21:32.372Z,19.5
2022-10-24T10:22:35.524Z,19.6
2022-10-24T10:23:38.871Z,19.7
2022-10-24T10:24:42.041Z,19.8
2022-10-24T10:25:44.840Z,19.9
2022-10-24T10:26:47.359Z,20
2022-10-24T10:27:50.474Z,19.9
2022-10-24T10:28:53.823Z,19.8
2022-10-24T10:29:56.631Z,19.7
2022-10-24T10:31:00.771Z,19.7
2022-10-24T10:32:03.874Z,19.7
2022-10-24T10:33:07.030Z,19.7
2022-10-24T10:34:10.383Z,19.7
2022-10-24T10:35:13.095Z,19.8
2022-10-24T10:36:16.050Z,19.8
2022-10-24T10:37:19.708Z,19.8
2022-10-24T10:38:22.855Z,19.8
2022-10-24T10:39:26.307Z,19.6
2022-10-24T10:40:28.944Z,19.7
2022-10-24T10:41:32.169Z,19.6
2022-10-24T10:42:35.326Z,19.6
2022-10-24T10:43:39.086Z,19.7
2022-10-24T10:44:42.505Z,19.9
2022-10-24T10:45:44.940Z,19.9
2022-10-24T10:46:49.085Z,20
2022-10-24T10:47:51.731Z,20
2022-10-24T10:48:54.057Z,20
2022-10-24T10:49:56.198Z,20.2
2022-10-24T10:50:59.928Z,20.3
2022-10-24T10:52:08.122Z,20.4
2022-10-24T10:53:10.641Z,20.6
2022-10-24T10:54:14.114Z,20.5
2022-10-24T10:55:16.659Z,20.4
2022-10-24T10:56:20.077Z,20.6
2022-10-24T10:57:29.385Z,20.8
2022-10-24T10:58:32.762Z,21
2022-10-24T10:59:36.310Z,21
2022-10-24T11:00:39.945Z,21
2022-10-24T11:01:43.874Z,21
2022-10-24T11:02:55.973Z,21
2022-10-24T11:03:59.522Z,21.2
2022-10-24T11:05:03.525Z,21.2
2022-10-24T11:06:06.241Z,21.3
2022-10-24T11:07:09.743Z,21.4
2022-10-24T11:08:19.666Z,21.3
2022-10-24T11:09:23.380Z,21.5
2022-10-24T11:10:25.897Z,21.6
2022-10-24T11:11:28.963Z,21.7
2022-10-24T11:12:31.738Z,21.8
2022-10-24T11:13:35.976Z,21.8
2022-10-24T11:14:39.252Z,21.9
2022-10-24T11:15:42.611Z,21.9
2022-10-24T11:16:45.674Z,22
2022-10-24T11:17:50.092Z,22.1
2022-10-24T11:18:54.193Z,22.3
2022-10-24T11:19:57.083Z,22.4
2022-10-24T11:21:00.186Z,22.5
2022-10-24T11:22:03.245Z,22.5
2022-10-24T11:23:06.121Z,22.4
2022-10-24T11:24:15.347Z,22.4
2022-10-24T11:25:18.779Z,22.4
2022-10-24T11:26:22.176Z,22.3
2022-10-24T11:27:25.162Z,22.2
2022-10-24T11:28:28.360Z,22.3
2022-10-24T11:29:31.228Z,22.3
2022-10-24T11:30:35.713Z,22.2
2022-10-24T11:31:45.564Z,22.3
2022-10-24T11:32:49.722Z,22.3
2022-10-24T11:33:53.452Z,22.4
2022-10-24T11:34:57.168Z,22.4
2022-10-24T11:36:00.839Z,22.4
2022-10-24T11:37:03.901Z,22.4
2022-10-24T11:38:06.895Z,22.5
2022-10-24T11:39:10.421Z,22.5
2022-10-24T11:40:15.179Z,22.6
2022-10-24T11:41:19.033Z,22.7
2022-10-24T11:42:22.687Z,22.6
2022-10-24T11:43:26.352Z,22.6
2022-10-24T11:44:29.249Z,22.6
2022-10-24T11:45:32.591Z,22.6
2022-10-24T11:46:35.539Z,22.6
2022-10-24T11:47:38.699Z,22.6
2022-10-24T11:48:41.566Z,22.8
2022-10-24T11:49:44.544Z,22.9
2022-10-24T11:50:47.906Z,22.6
2022-10-24T11:51:51.704Z,22.4
2022-10-24T11:52:54.797Z,22.3
2022-10-24T11:53:57.591Z,22.3
2022-10-24T11:55:01.028Z,22.2
2022-10-24T11:56:04.728Z,22.3
2022-10-24T11:57:08.168Z,22.2
2022-10-24T11:58:11.199Z,22.1
2022-10-24T11:59:14.287Z,22.3
2022-10-24T12:00:17.733Z,22.3
2022-10-24T12:01:20.799Z,22.4
2022-10-24T12:02:24.069Z,22.4
2022-10-24T12:03:27.783Z,22.4
2022-10-24T12:04:31.211Z,22.3
2022-10-24T12:05:34.565Z,22.2
2022-10-24T12:06:38.431Z,22.2
2022-10-24T12:07:41.095Z,22.2
2022-10-24T12:08:44.527Z,22.2
2022-10-24T12:09:47.905Z,22.4
2022-10-24T12:10:52.093Z,22.4
2022-10-24T12:11:55.334Z,22.4
2022-10-24T12:12:58.820Z,22.5
2022-10-24T12:15:05.878Z,22.1
2022-10-24T12:16:08.312Z,22
2022-10-24T12:17:11.457Z,22
2022-10-24T12:18:15.504Z,21.9
2022-10-24T12:19:18.846Z,21.7
2022-10-24T12:20:21.985Z,21.5
2022-10-24T12:21:27.650Z,21.3
2022-10-24T12:22:31.626Z,21.2
2022-10-24T12:23:35.088Z,21.1
2022-10-24T12:24:38.266Z,20.9
2022-10-24T12:25:48.965Z,20.8
2022-10-24T12:26:51.959Z,20.8
2022-10-24T12:27:54.556Z,20.7
2022-10-24T12:28:57.655Z,20.6
2022-10-24T12:30:01.105Z,20.6
2022-10-24T12:31:03.895Z,20.6
2022-10-24T12:32:06.703Z,20.5
2022-10-24T12:33:09.776Z,20.5
2022-10-24T12:34:13.550Z,20.4
2022-10-24T12:35:32.676Z,20.4
2022-10-24T12:36:36.025Z,20.4
2022-10-24T12:37:47.502Z,20.3
2022-10-24T12:38:50.528Z,20.4
2022-10-24T12:40:00.188Z,20.5
2022-10-24T12:41:02.984Z,20.5
2022-10-24T12:42:05.699Z,20.4
2022-10-24T12:43:08.800Z,20.4
2022-10-24T12:44:11.593Z,20.3
2022-10-24T12:45:14.957Z,20.4
2022-10-24T12:46:24.824Z,20.3
2022-10-24T12:47:28.257Z,20.3
2022-10-24T12:48:31.143Z,20.2
2022-10-24T12:49:34.158Z,20
2022-10-24T12:50:37.377Z,19.8
2022-10-24T12:51:39.954Z,19.9
2022-10-24T12:52:45.350Z,19.9
2022-10-24T12:53:49.095Z,19.9
2022-10-24T12:54:52.566Z,19.8
2022-10-24T12:55:55.424Z,19.8
2022-10-24T12:56:57.860Z,19.8
2022-10-24T12:58:01.202Z,19.9
2022-10-24T12:59:03.625Z,19.8
2022-10-24T13:00:06.974Z,19.7
2022-10-24T13:01:10.730Z,19.6
2022-10-24T13:02:15.316Z,19.7
2022-10-24T13:03:18.826Z,19.8
2022-10-24T13:04:21.895Z,19.9
2022-10-24T13:05:25.005Z,20
2022-10-24T13:06:28.518Z,20
2022-10-24T13:07:31.604Z,20
2022-10-24T13:08:35.655Z,20.1
2022-10-24T13:09:38.209Z,20.1
2022-10-24T13:10:41.305Z,20.1
2022-10-24T13:11:44.107Z,20.1
2022-10-24T13:12:48.192Z,20
2022-10-24T13:13:56.288Z,20
2022-10-24T13:14:59.934Z,19.9
2022-10-24T13:16:02.534Z,19.9
2022-10-24T13:17:05.897Z,19.9
2022-10-24T13:18:09.434Z,19.7
2022-10-24T13:19:12.784Z,19.6
2022-10-24T13:20:15.300Z,19.7
2022-10-24T13:21:18.706Z,19.6
2022-10-24T13:22:22.339Z,19.6
2022-10-24T13:23:25.464Z,19.6
2022-10-24T13:24:28.978Z,19.6
2022-10-24T13:25:32.336Z,19.5
2022-10-24T13:26:35.146Z,19.4
2022-10-24T13:27:38.567Z,19.4
2022-10-24T13:28:41.633Z,19.4
2022-10-24T13:29:44.670Z,19.4
2022-10-24T13:30:51.479Z,19.4
2022-10-24T13:31:54.643Z,19.4
2022-10-24T13:32:57.986Z,19.4
2022-10-24T13:34:00.973Z,19.4
2022-10-24T13:35:04.306Z,19.3
2022-10-24T13:36:07.445Z,19.3
2022-10-24T13:37:10.563Z,19.3
2022-10-24T13:38:14.555Z,19.3
2022-10-24T13:39:17.739Z,19.3
2022-10-24T13:40:21.189Z,19.2
2022-10-24T13:41:24.351Z,19.1
2022-10-24T13:42:27.526Z,19.1
2022-10-24T13:43:30.730Z,19.1
2022-10-24T13:44:32.985Z,19
2022-10-24T13:45:35.984Z,19
2022-10-24T13:47:41.859Z,19
2022-10-24T13:48:45.905Z,19
2022-10-24T13:49:49.160Z,19
2022-10-24T13:50:51.980Z,19
2022-10-24T13:51:55.057Z,18.9
2022-10-24T13:52:58.731Z,18.9
2022-10-24T13:54:02.177Z,18.9
2022-10-24T13:55:05.358Z,18.9
2022-10-24T13:56:08.915Z,18.9
2022-10-24T13:57:11.268Z,18.9
2022-10-24T13:58:14.391Z,19
2022-10-24T13:59:17.566Z,19
2022-10-24T14:00:20.714Z,19
2022-10-24T14:01:24.472Z,19
2022-10-24T14:02:33.973Z,19
2022-10-24T14:03:44.119Z,19
2022-10-24T14:04:47.466Z,19
2022-10-24T14:05:50.542Z,18.9
2022-10-24T14:06:53.264Z,18.9
2022-10-24T14:07:56.330Z,18.9
2022-10-24T14:09:08.714Z,18.8
2022-10-24T14:10:12.755Z,18.8
2022-10-24T14:11:24.395Z,18.8
2022-10-24T14:12:26.569Z,18.8
2022-10-24T14:13:29.586Z,18.8
2022-10-24T14:14:33.410Z,18.7
2022-10-24T14:15:36.809Z,18.7
2022-10-24T14:16:39.531Z,18.6
2022-10-24T14:17:42.905Z,18.6
2022-10-24T14:18:46.335Z,18.6